Time;durP1;ratioP1;P1;durP2;ratioP2;P2;SDS_P1;SDS_P2;PMS_P1;PMS_P2;Temp;Humidity;BMP_temperature;BMP_pressure;BME280_temperature;BME280_humidity;BME280_pressure;Samples;Min_cycle;Max_cycle;Signal;HPM_P1;HPM_P2
2022/10/26 00:00:16;;;;;;;11.03;4.73;;;;;;;17.00;83.54;95138.72;4894288;29;20212;-80
2022/10/26 00:02:43;;;;;;;7.67;4.80;;;;;;;16.94;83.57;95140.22;4882990;29;20573;-79
2022/10/26 00:05:10;;;;;;;7.63;5.33;;;;;;;16.95;83.62;95136.66;4897945;29;20197;-80
2022/10/26 00:07:37;;;;;;;11.27;5.00;;;;;;;16.95;83.49;95130.69;4903678;29;20204;-79
2022/10/26 00:10:04;;;;;;;8.10;5.17;;;;;;;16.93;83.56;95130.84;4904404;29;20788;-79
2022/10/26 00:12:31;;;;;;;11.03;5.53;;;;;;;16.92;83.42;95131.81;4888806;29;20221;-78
2022/10/26 00:14:58;;;;;;;5.50;4.63;;;;;;;16.88;83.42;95129.72;4880330;29;20200;-82
2022/10/26 00:17:26;;;;;;;9.87;4.87;;;;;;;16.88;83.60;95137.47;4881845;29;20197;-80
2022/10/26 00:19:53;;;;;;;5.97;4.87;;;;;;;16.83;83.45;95132.78;4882791;29;20673;-80
2022/10/26 00:22:20;;;;;;;10.27;5.40;;;;;;;16.85;83.54;95135.22;4882782;29;20204;-84
2022/10/26 00:24:47;;;;;;;8.10;4.90;;;;;;;16.85;83.43;95137.81;4884032;29;20193;-79
2022/10/26 00:27:14;;;;;;;10.60;5.20;;;;;;;16.82;83.34;95132.97;4883440;29;20197;-82
2022/10/26 00:29:41;;;;;;;8.23;4.47;;;;;;;16.46;83.40;95081.69;4882340;29;20204;-84
2022/10/26 00:32:08;;;;;;;6.43;4.93;;;;;;;16.73;83.46;95130.41;4882893;29;20224;-80
2022/10/26 00:34:36;;;;;;;8.70;4.83;;;;;;;16.78;83.44;95145.41;4882731;29;20194;-83
2022/10/26 00:37:03;;;;;;;7.27;4.83;;;;;;;16.77;83.68;95141.22;4882178;29;20200;-80
2022/10/26 00:39:30;;;;;;;11.17;4.73;;;;;;;16.76;83.45;95142.19;4882765;29;20201;-79
2022/10/26 00:41:57;;;;;;;6.00;4.20;;;;;;;16.75;83.41;95140.56;4880455;29;20215;-79
2022/10/26 00:44:56;;;;;;;7.97;5.23;;;;;;;16.74;83.49;95139.75;4880526;29;20197;-80
2022/10/26 00:47:29;;;;;;;5.90;4.70;;;;;;;16.70;83.51;95133.28;4879924;29;20578;-83
2022/10/26 00:50:01;;;;;;;10.77;4.83;;;;;;;16.68;83.49;95126.69;4896082;29;20675;-86
2022/10/26 00:52:29;;;;;;;6.37;4.43;;;;;;;16.66;83.47;95128.59;4899384;29;20239;-85
2022/10/26 00:54:56;;;;;;;7.43;4.70;;;;;;;16.63;83.39;95124.59;4861688;29;20257;-86
2022/10/26 00:57:24;;;;;;;5.83;4.80;;;;;;;16.69;83.26;95133.44;4862620;29;20690;-87
2022/10/26 00:59:54;;;;;;;6.13;4.03;;;;;;;16.67;83.43;95125.06;4866534;29;20194;-81
2022/10/26 01:02:22;;;;;;;7.83;5.07;;;;;;;16.67;83.37;95128.47;4871083;29;20666;-88
2022/10/26 01:04:49;;;;;;;9.37;4.70;;;;;;;16.65;83.30;95122.63;4880007;29;20217;-85
2022/10/26 01:07:18;;;;;;;6.13;4.77;;;;;;;16.64;83.29;95121.03;4879839;29;20679;-82
2022/10/26 01:09:45;;;;;;;5.40;4.10;;;;;;;16.63;83.32;95124.59;4879693;29;20200;-82
2022/10/26 01:12:12;;;;;;;5.47;4.50;;;;;;;16.62;83.27;95119.56;4879407;29;20232;-84
2022/10/26 01:14:39;;;;;;;9.07;4.73;;;;;;;16.60;83.17;95116.34;4880070;29;20197;-86
2022/10/26 01:17:19;;;;;;;5.30;4.57;;;;;;;16.55;83.22;95115.06;4882558;29;20192;-84
2022/10/26 01:20:34;;;;;;;5.30;4.50;;;;;;;16.58;83.13;95116.53;4879737;29;20193;-80
2022/10/26 01:23:11;;;;;;;8.97;4.10;;;;;;;16.55;83.20;95116.84;4804030;29;20682;-83
2022/10/26 01:26:08;;;;;;;6.70;4.03;;;;;;;16.54;83.17;95123.00;4803858;29;20203;-84
2022/10/26 01:28:59;;;;;;;6.87;4.50;;;;;;;16.52;83.04;95124.91;4803706;29;20208;-81
2022/10/26 01:31:33;;;;;;;6.30;4.33;;;;;;;16.46;83.00;95117.84;4803896;29;20223;-81
2022/10/26 01:34:03;;;;;;;9.57;3.50;;;;;;;16.48;82.78;95127.00;4803401;29;20212;-84
2022/10/26 01:36:34;;;;;;;8.03;4.10;;;;;;;16.43;82.97;95124.13;4804184;29;20649;-81
2022/10/26 01:39:09;;;;;;;6.97;4.00;;;;;;;16.46;82.92;95120.41;4803813;29;20274;-78
2022/10/26 01:41:39;;;;;;;5.73;4.23;;;;;;;16.29;82.74;95092.03;4803899;29;20191;-82
2022/10/26 01:44:13;;;;;;;6.87;3.93;;;;;;;16.34;82.91;95096.72;4803267;29;20560;-83
2022/10/26 01:46:45;;;;;;;6.60;3.97;;;;;;;16.41;82.85;95107.19;4809013;29;20192;-85
2022/10/26 01:49:15;;;;;;;8.43;4.33;;;;;;;16.35;82.78;95098.31;4823702;29;20188;-84
2022/10/26 01:51:44;;;;;;;7.53;3.67;;;;;;;16.39;82.79;95107.34;4824242;29;20254;-78
2022/10/26 01:54:11;;;;;;;6.43;4.17;;;;;;;16.34;82.80;95093.31;4829114;29;20214;-78
2022/10/26 01:56:40;;;;;;;6.63;4.07;;;;;;;16.19;82.70;95078.50;4849719;29;20200;-79
2022/10/26 01:59:25;;;;;;;7.23;3.97;;;;;;;16.34;82.60;95101.06;4896917;29;20201;-78
2022/10/26 02:02:29;;;;;;;10.47;4.70;;;;;;;16.30;82.47;95098.00;4896307;29;20549;-82
2022/10/26 02:05:14;;;;;;;5.03;4.00;;;;;;;16.16;82.49;95086.56;4895113;29;20194;-80
2022/10/26 02:07:50;;;;;;;6.97;3.90;;;;;;;16.27;82.55;95101.69;4886813;29;20763;-81
2022/10/26 02:10:27;;;;;;;3.97;3.53;;;;;;;16.26;82.55;95104.44;4885768;29;20265;-84
2022/10/26 02:13:03;;;;;;;5.90;4.43;;;;;;;16.17;82.58;95088.16;4887011;29;20704;-83
2022/10/26 02:15:35;;;;;;;4.37;3.70;;;;;;;16.21;82.48;95104.13;4897974;29;20251;-80
2022/10/26 02:18:12;;;;;;;9.23;4.17;;;;;;;16.21;82.36;95107.53;4898346;29;20185;-80
2022/10/26 02:20:43;;;;;;;6.10;4.17;;;;;;;16.19;82.33;95116.38;4903677;29;20213;-80
2022/10/26 02:23:12;;;;;;;7.70;4.20;;;;;;;16.19;82.44;95118.97;4900359;29;20208;-77
2022/10/26 02:25:45;;;;;;;6.57;3.73;;;;;;;16.16;82.49;95114.94;4895320;29;20189;-80
2022/10/26 02:28:15;;;;;;;5.10;4.10;;;;;;;16.16;82.25;95117.53;4900037;29;20201;-80
2022/10/26 02:30:43;;;;;;;5.50;4.20;;;;;;;16.14;82.28;95116.06;4901569;29;20198;-80
2022/10/26 02:33:14;;;;;;;9.70;3.57;;;;;;;16.11;82.35;95109.47;4886810;29;20252;-78
2022/10/26 02:35:48;;;;;;;5.30;3.80;;;;;;;16.12;82.23;95121.41;4885079;29;20582;-79
2022/10/26 02:38:18;;;;;;;5.60;4.07;;;;;;;16.11;82.32;95122.38;4885221;29;20209;-77
2022/10/26 02:40:48;;;;;;;5.73;3.93;;;;;;;16.09;82.21;95126.06;4891139;29;20234;-80
2022/10/26 02:43:20;;;;;;;8.37;3.97;;;;;;;16.08;82.15;95121.88;4899007;29;20205;-80
2022/10/26 02:45:53;;;;;;;6.43;4.57;;;;;;;16.07;82.25;95120.28;4902253;29;20181;-80
2022/10/26 02:48:22;;;;;;;6.77;4.00;;;;;;;16.04;82.17;95117.03;4902812;29;20184;-82
2022/10/26 02:50:58;;;;;;;7.77;4.03;;;;;;;16.03;82.30;95124.94;4882403;29;20193;-78
2022/10/26 02:53:27;;;;;;;10.33;4.20;;;;;;;15.97;82.20;95112.66;4883389;29;20230;-80
2022/10/26 02:55:54;;;;;;;6.20;4.50;;;;;;;16.01;82.26;95117.34;4885506;29;20204;-79
2022/10/26 02:58:26;;;;;;;5.60;4.03;;;;;;;15.99;82.28;95124.44;4886147;29;20192;-82
2022/10/26 03:00:54;;;;;;;8.43;5.10;;;;;;;15.98;82.24;95130.59;4881276;29;20241;-81
2022/10/26 03:03:22;;;;;;;6.03;4.03;;;;;;;15.80;82.38;95102.38;4882838;29;20208;-79
2022/10/26 03:05:49;;;;;;;6.30;3.70;;;;;;;15.83;82.39;95105.56;4882332;29;20189;-79
2022/10/26 03:08:16;;;;;;;7.63;4.30;;;;;;;15.92;82.29;95133.78;4882252;29;20189;-83
2022/10/26 03:10:45;;;;;;;6.97;4.00;;;;;;;15.91;82.47;95139.13;4881363;29;20743;-79
2022/10/26 03:13:12;;;;;;;4.90;3.97;;;;;;;15.89;82.23;95148.78;4881142;29;20217;-79
2022/10/26 03:15:39;;;;;;;5.80;4.50;;;;;;;15.88;82.33;95147.97;4881432;29;20212;-80
2022/10/26 03:18:07;;;;;;;8.13;4.00;;;;;;;15.83;82.24;95144.25;4881764;29;20587;-79
2022/10/26 03:20:35;;;;;;;5.73;4.00;;;;;;;15.85;82.15;95152.66;4881940;29;20189;-78
2022/10/26 03:23:02;;;;;;;8.00;4.37;;;;;;;15.84;82.19;95156.19;4880645;29;20208;-80
2022/10/26 03:25:29;;;;;;;8.03;4.57;;;;;;;15.83;82.20;95164.88;4881548;29;20196;-81
2022/10/26 03:28:00;;;;;;;10.97;4.03;;;;;;;15.76;82.25;95157.78;4881627;29;20189;-80
2022/10/26 03:30:27;;;;;;;6.97;4.40;;;;;;;15.79;82.24;95165.19;4881403;29;20586;-80
2022/10/26 03:32:55;;;;;;;6.67;4.07;;;;;;;15.78;82.44;95166.16;4881138;29;20224;-79
2022/10/26 03:35:22;;;;;;;7.37;4.50;;;;;;;15.64;82.46;95150.47;4883270;29;20299;-77
2022/10/26 03:37:50;;;;;;;8.87;4.70;;;;;;;15.62;82.49;95142.09;4895050;29;20294;-80
2022/10/26 03:40:17;;;;;;;7.73;4.77;;;;;;;15.73;82.35;95162.47;4895161;29;20188;-79
2022/10/26 03:42:44;;;;;;;5.00;4.50;;;;;;;15.71;82.39;95162.59;4895131;29;20613;-81
2022/10/26 03:45:11;;;;;;;7.40;4.97;;;;;;;15.69;82.31;95168.88;4895279;29;20197;-83
2022/10/26 03:47:44;;;;;;;6.63;4.33;;;;;;;15.65;82.50;95159.84;4884040;29;20223;-83
2022/10/26 03:50:12;;;;;;;11.80;4.77;;;;;;;15.67;82.34;95165.66;4876485;29;20291;-84
2022/10/26 03:52:39;;;;;;;9.93;5.03;;;;;;;15.34;82.15;95118.34;4880931;29;20271;-82
2022/10/26 03:55:08;;;;;;;7.60;4.70;;;;;;;15.54;82.51;95153.16;4890399;29;20189;-81
2022/10/26 03:57:40;;;;;;;8.47;4.90;;;;;;;15.44;82.53;95134.47;4879623;29;20197;-86
2022/10/26 04:00:08;;;;;;;6.43;4.60;;;;;;;15.52;82.74;95161.06;4877507;29;20589;-83
2022/10/26 04:02:36;;;;;;;7.90;4.47;;;;;;;15.56;82.53;95159.00;4882764;29;20199;-84
2022/10/26 04:05:03;;;;;;;7.17;4.60;;;;;;;15.55;82.56;95165.13;4889275;29;20234;-81
2022/10/26 04:07:29;;;;;;;8.37;4.90;;;;;;;15.52;82.67;95163.66;4893072;29;20206;-86
2022/10/26 04:09:56;;;;;;;5.90;4.57;;;;;;;15.51;82.60;95169.78;4895669;29;20227;-83
2022/10/26 04:12:25;;;;;;;6.07;4.27;;;;;;;15.50;82.44;95160.44;4885863;29;20712;-82
2022/10/26 04:14:51;;;;;;;5.80;4.17;;;;;;;15.49;82.56;95163.94;4893396;29;20207;-81
2022/10/26 04:17:18;;;;;;;4.77;4.03;;;;;;;15.45;82.45;95160.06;4878311;29;20197;-85
2022/10/26 04:19:45;;;;;;;8.20;5.20;;;;;;;15.47;82.38;95173.63;4886071;29;20193;-84
2022/10/26 04:22:13;;;;;;;7.63;4.13;;;;;;;15.47;82.51;95171.06;4895281;29;20203;-85
2022/10/26 04:24:40;;;;;;;8.77;5.17;;;;;;;15.46;82.43;95169.44;4892086;29;20191;-82
2022/10/26 04:27:07;;;;;;;8.03;5.10;;;;;;;15.45;82.43;95167.00;4877166;29;20217;-84
2022/10/26 04:29:35;;;;;;;4.97;4.00;;;;;;;15.44;82.56;95168.78;4876201;29;20194;-85
2022/10/26 04:32:01;;;;;;;6.73;4.70;;;;;;;15.33;82.46;95156.19;4876769;29;20189;-84
2022/10/26 04:34:30;;;;;;;7.20;4.27;;;;;;;15.41;82.57;95166.50;4892792;29;20200;-82
2022/10/26 04:36:59;;;;;;;8.33;4.77;;;;;;;15.28;82.33;95146.34;4895874;29;20219;-83
2022/10/26 04:39:26;;;;;;;9.63;4.93;;;;;;;15.40;82.47;95176.97;4877882;29;20588;-85
2022/10/26 04:41:54;;;;;;;8.10;4.53;;;;;;;15.39;82.42;95175.38;4877770;29;20193;-85
2022/10/26 04:44:21;;;;;;;6.37;4.97;;;;;;;15.38;82.62;95177.13;4876470;29;20240;-81
2022/10/26 04:46:50;;;;;;;5.60;4.53;;;;;;;15.34;82.60;95172.44;4890990;29;20196;-87
2022/10/26 04:49:16;;;;;;;8.37;4.90;;;;;;;15.38;82.61;95181.50;4902333;29;20205;-84
2022/10/26 04:51:43;;;;;;;11.47;4.93;;;;;;;15.28;82.54;95169.53;4899241;29;20268;-84
2022/10/26 04:54:10;;;;;;;7.37;4.23;;;;;;;15.30;82.63;95177.09;4895889;29;20759;-82
2022/10/26 04:56:37;;;;;;;6.43;4.83;;;;;;;15.32;82.67;95180.31;4895552;29;20196;-83
2022/10/26 04:59:04;;;;;;;6.73;4.17;;;;;;;15.09;82.50;95141.41;4895179;29;20192;-82
2022/10/26 05:01:31;;;;;;;10.73;5.00;;;;;;;15.37;82.56;95192.75;4892294;29;20189;-82
2022/10/26 05:03:59;;;;;;;6.47;4.97;;;;;;;15.12;82.51;95140.31;4879410;29;20288;-85
2022/10/26 05:06:26;;;;;;;10.10;4.60;;;;;;;15.34;82.32;95177.59;4889516;29;20200;-82
2022/10/26 05:08:53;;;;;;;7.07;4.60;;;;;;;15.15;82.53;95150.28;4893805;29;20220;-83
2022/10/26 05:11:20;;;;;;;5.83;4.57;;;;;;;15.44;82.40;95188.59;4877347;29;20237;-82
2022/10/26 05:13:48;;;;;;;7.77;5.00;;;;;;;15.07;82.38;95130.47;4877232;29;20217;-85
2022/10/26 05:16:15;;;;;;;9.40;5.43;;;;;;;15.50;82.24;95195.69;4877386;29;20221;-81
2022/10/26 05:18:42;;;;;;;8.37;4.97;;;;;;;15.55;82.24;95190.91;4877165;29;20277;-84
2022/10/26 05:21:11;;;;;;;7.33;4.40;;;;;;;15.35;82.21;95156.03;4876492;29;20197;-83
2022/10/26 05:23:38;;;;;;;7.77;4.90;;;;;;;15.30;82.03;95141.84;4877135;29;20205;-80
2022/10/26 05:26:05;;;;;;;7.03;4.77;;;;;;;15.67;82.00;95191.44;4876789;29;20205;-80
2022/10/26 05:28:32;;;;;;;5.60;4.67;;;;;;;15.70;81.97;95191.94;4878942;29;20197;-82
2022/10/26 05:31:00;;;;;;;9.00;4.63;;;;;;;15.77;81.69;95200.66;4876470;29;20207;-81
2022/10/26 05:33:26;;;;;;;11.13;4.70;;;;;;;15.82;81.73;95204.53;4877332;29;20236;-82
2022/10/26 05:35:55;;;;;;;8.03;4.70;;;;;;;15.87;81.36;95210.84;4877456;29;20553;-82
2022/10/26 05:38:23;;;;;;;10.80;4.63;;;;;;;15.93;81.39;95204.25;4876167;29;20634;-84
2022/10/26 05:40:51;;;;;;;6.77;5.00;;;;;;;15.88;81.27;95196.97;4876855;29;20724;-83
2022/10/26 05:43:19;;;;;;;10.23;5.13;;;;;;;15.77;81.23;95171.50;4892669;29;20203;-83
2022/10/26 05:45:47;;;;;;;11.70;5.27;;;;;;;16.08;81.07;95209.59;4897309;29;20207;-83
2022/10/26 05:48:14;;;;;;;6.43;4.57;;;;;;;16.14;80.99;95207.19;4897666;29;20546;-83
2022/10/26 05:50:40;;;;;;;5.83;4.63;;;;;;;16.13;80.98;95203.00;4899435;29;20201;-82
2022/10/26 05:53:07;;;;;;;6.30;4.53;;;;;;;16.21;80.91;95207.38;4908678;29;20719;-85
2022/10/26 05:55:37;;;;;;;9.27;4.90;;;;;;;16.42;80.94;95225.78;4899195;29;20193;-82
2022/10/26 05:58:04;;;;;;;8.20;5.40;;;;;;;16.50;80.81;95225.78;4897172;29;20576;-82
2022/10/26 06:00:32;;;;;;;6.30;5.00;;;;;;;16.65;80.80;95233.69;4897165;29;20703;-83
2022/10/26 06:03:13;;;;;;;7.80;4.27;;;;;;;16.77;80.84;95231.63;4898751;29;20256;-83
2022/10/26 06:05:50;;;;;;;9.83;4.90;;;;;;;16.93;80.82;95234.19;4898196;29;20196;-83
2022/10/26 06:08:18;;;;;;;7.53;4.57;;;;;;;17.10;80.89;95242.75;4897950;29;20695;-83
2022/10/26 06:10:47;;;;;;;7.20;5.20;;;;;;;17.36;81.05;95247.69;4897334;29;20235;-83
2022/10/26 06:13:14;;;;;;;9.43;4.77;;;;;;;17.59;82.30;95219.31;4896277;29;20236;-83
2022/10/26 06:15:51;;;;;;;9.17;4.63;;;;;;;18.22;84.80;95239.09;4898012;29;20200;-82
2022/10/26 06:18:46;;;;;;;10.77;5.23;;;;;;;18.56;85.95;95191.25;4899033;29;20207;-84
2022/10/26 06:21:39;;;;;;;9.77;5.07;;;;;;;19.69;86.92;95248.22;4898675;29;20744;-84
2022/10/26 06:24:16;;;;;;;10.17;5.37;;;;;;;20.47;86.69;95249.31;4897527;29;20204;-84
2022/10/26 06:26:53;;;;;;;9.17;4.47;;;;;;;21.24;85.94;95252.97;4897314;29;20189;-83
2022/10/26 06:29:39;;;;;;;10.57;4.27;;;;;;;22.01;84.79;95247.59;4897889;29;20211;-82
2022/10/26 06:32:07;;;;;;;9.75;4.50;;;;;;;22.80;83.08;95261.84;4897342;29;20196;-83
2022/10/26 06:34:36;;;;;;;7.30;4.43;;;;;;;23.25;81.53;95221.13;4897337;29;20349;-82
2022/10/26 06:37:04;;;;;;;11.40;3.97;;;;;;;24.16;79.65;95258.66;4896864;29;20196;-83
2022/10/26 06:39:37;;;;;;;8.27;4.20;;;;;;;24.86;77.69;95259.47;4896654;29;20205;-82
2022/10/26 06:42:06;;;;;;;10.00;4.40;;;;;;;25.47;75.80;95244.88;4896518;29;20196;-83
2022/10/26 06:44:33;;;;;;;5.32;4.18;;;;;;;26.12;74.50;95249.63;4896495;29;20189;-81
2022/10/26 06:47:06;;;;;;;4.55;3.28;;;;;;;26.80;72.42;95267.69;4895985;29;20204;-82
2022/10/26 06:49:37;;;;;;;5.93;3.45;;;;;;;27.39;70.57;95271.25;4896537;29;20252;-84
2022/10/26 06:52:12;;;;;;;4.57;3.40;;;;;;;27.81;68.93;95244.84;4896635;29;20296;-83
2022/10/26 06:54:47;;;;;;;8.82;4.10;;;;;;;28.50;67.51;95265.94;4896638;29;20726;-84
2022/10/26 06:57:17;;;;;;;5.22;3.90;;;;;;;28.98;65.88;95272.56;4902512;29;20370;-84
2022/10/26 06:59:48;;;;;;;7.63;3.10;;;;;;;29.42;64.37;95276.16;4908943;29;20196;-84
2022/10/26 07:02:15;;;;;;;7.40;3.67;;;;;;;29.83;62.80;95279.38;4911529;29;20220;-84
2022/10/26 07:04:43;;;;;;;9.35;3.42;;;;;;;30.20;61.54;95276.16;4909644;29;20279;-81
2022/10/26 07:07:13;;;;;;;3.30;3.00;;;;;;;30.57;60.52;95283.41;4906555;29;20224;-82
2022/10/26 07:09:40;;;;;;;4.78;3.38;;;;;;;30.81;59.11;95271.53;4896202;29;20230;-83
2022/10/26 07:12:07;;;;;;;3.75;2.92;;;;;;;31.14;58.02;95286.38;4896087;29;20211;-83
2022/10/26 07:14:36;;;;;;;4.05;3.05;;;;;;;31.40;56.71;95286.59;4896069;29;20228;-83
2022/10/26 07:17:03;;;;;;;5.00;3.10;;;;;;;31.64;56.22;95287.00;4895788;29;20214;-83
2022/10/26 07:19:30;;;;;;;5.38;3.22;;;;;;;31.85;55.57;95293.22;4899086;29;20196;-83
2022/10/26 07:21:58;;;;;;;6.00;3.08;;;;;;;31.80;54.67;95249.00;4897376;29;20583;-81
2022/10/26 07:24:25;;;;;;;5.18;2.88;;;;;;;32.19;53.89;95277.78;4899809;29;20579;-83
2022/10/26 07:26:54;;;;;;;7.22;3.28;;;;;;;32.42;52.97;95289.78;4905855;29;20195;-83
2022/10/26 07:29:21;;;;;;;5.28;2.90;;;;;;;32.60;52.53;95291.97;4910924;29;20576;-82
2022/10/26 07:31:49;;;;;;;4.88;3.35;;;;;;;32.68;51.90;95277.41;4906123;29;20203;-82
2022/10/26 07:34:16;;;;;;;5.50;3.22;;;;;;;32.85;51.38;95293.84;4896483;29;20227;-83
2022/10/26 07:36:43;;;;;;;6.80;3.22;;;;;;;32.97;50.68;95283.03;4895683;29;20193;-83
2022/10/26 07:39:10;;;;;;;4.70;3.15;;;;;;;33.05;50.07;95287.03;4895849;29;20219;-83
2022/10/26 07:41:37;;;;;;;4.63;2.88;;;;;;;33.11;49.54;95284.09;4895581;29;20341;-82
2022/10/26 07:44:03;;;;;;;4.82;3.60;;;;;;;33.17;49.20;95285.69;4895297;29;20204;-83
2022/10/26 07:46:31;;;;;;;4.25;3.22;;;;;;;33.24;49.02;95279.31;4895640;29;20215;-82
2022/10/26 07:48:59;;;;;;;2.97;2.78;;;;;;;33.27;48.40;95282.25;4895795;29;20200;-82
2022/10/26 07:51:26;;;;;;;4.80;2.92;;;;;;;33.25;48.48;95286.22;4904027;29;20233;-82
2022/10/26 07:53:53;;;;;;;5.45;3.03;;;;;;;33.10;48.79;95281.72;4905808;29;20228;-83
2022/10/26 07:56:19;;;;;;;4.35;3.45;;;;;;;32.84;49.38;95268.41;4898460;29;20203;-83
2022/10/26 07:58:46;;;;;;;5.47;3.58;;;;;;;32.57;49.32;95279.25;4896131;29;20205;-83
2022/10/26 08:01:15;;;;;;;3.33;3.03;;;;;;;32.16;49.41;95259.75;4895862;29;20231;-82
2022/10/26 08:03:42;;;;;;;5.43;3.67;;;;;;;31.88;49.65;95271.56;4895389;29;20203;-83
2022/10/26 08:06:11;;;;;;;5.07;3.40;;;;;;;31.40;49.48;95245.09;4895197;29;20219;-83
2022/10/26 08:08:38;;;;;;;4.95;3.20;;;;;;;31.12;49.45;95267.31;4895244;29;20207;-83
2022/10/26 08:11:05;;;;;;;5.07;3.65;;;;;;;30.84;49.57;95271.06;4895981;29;20232;-83
2022/10/26 08:13:34;;;;;;;6.63;3.20;;;;;;;30.26;49.59;95225.03;4895169;29;20227;-82
2022/10/26 08:16:03;;;;;;;6.28;3.20;;;;;;;30.23;49.21;95273.06;4900272;29;20813;-83
2022/10/26 08:18:30;;;;;;;3.97;3.03;;;;;;;29.65;49.68;95233.00;4907936;29;20608;-81
2022/10/26 08:21:02;;;;;;;4.78;3.20;;;;;;;29.63;49.33;95273.84;4905671;29;20278;-82
2022/10/26 08:23:30;;;;;;;3.50;3.03;;;;;;;29.31;49.24;95269.13;4903259;29;20207;-83
2022/10/26 08:25:59;;;;;;;5.40;2.95;;;;;;;29.07;49.96;95268.50;4902858;29;20224;-82
2022/10/26 08:28:26;;;;;;;3.70;3.40;;;;;;;28.80;49.75;95264.84;4896148;29;20207;-82
2022/10/26 08:30:53;;;;;;;5.00;3.10;;;;;;;28.40;50.00;95242.84;4895841;29;20200;-84
2022/10/26 08:33:21;;;;;;;5.35;3.08;;;;;;;28.29;49.67;95262.09;4895539;29;20611;-82
2022/10/26 08:35:47;;;;;;;3.97;2.90;;;;;;;28.08;49.68;95270.63;4895695;29;20197;-83
2022/10/26 08:38:14;;;;;;;4.18;2.97;;;;;;;27.71;50.20;95244.59;4898345;29;20664;-83
2022/10/26 08:40:43;;;;;;;5.50;2.88;;;;;;;27.66;50.25;95268.13;4898839;29;20204;-84
2022/10/26 08:43:18;;;;;;;4.80;3.22;;;;;;;27.45;50.01;95264.25;4899562;29;20192;-83
2022/10/26 08:45:50;;;;;;;4.35;2.80;;;;;;;27.28;50.18;95266.78;4899010;29;20668;-83
2022/10/26 08:48:23;;;;;;;6.47;3.45;;;;;;;27.03;50.25;95256.47;4899187;29;20196;-83
2022/10/26 08:50:53;;;;;;;6.10;3.35;;;;;;;26.96;50.73;95266.25;4898929;29;20197;-83
2022/10/26 08:53:25;;;;;;;4.32;3.00;;;;;;;26.79;50.99;95265.31;4898321;29;20200;-84
2022/10/26 08:55:56;;;;;;;4.50;3.33;;;;;;;26.64;51.42;95261.28;4898760;29;20557;-83
2022/10/26 08:58:28;;;;;;;5.32;3.35;;;;;;;26.49;51.29;95266.94;4899218;29;20700;-82
2022/10/26 09:00:55;;;;;;;5.45;3.50;;;;;;;26.40;51.62;95270.84;4899043;29;20188;-83
2022/10/26 09:03:22;;;;;;;3.72;3.03;;;;;;;26.22;51.18;95260.41;4898652;29;20202;-82
2022/10/26 09:06:17;;;;;;;3.95;3.20;;;;;;;26.20;51.55;95278.16;4898399;29;20207;-83
2022/10/26 09:08:57;;;;;;;4.25;3.08;;;;;;;26.09;51.45;95279.72;4898685;29;20219;-83
2022/10/26 09:11:40;;;;;;;5.13;3.45;;;;;;;25.96;51.62;95277.25;4898325;29;20232;-84
2022/10/26 09:14:15;;;;;;;6.03;3.38;;;;;;;25.76;51.76;95249.44;4897813;29;20239;-82
2022/10/26 09:16:53;;;;;;;3.15;2.88;;;;;;;25.76;51.60;95270.41;4898667;29;20204;-83
2022/10/26 09:19:35;;;;;;;4.18;2.88;;;;;;;25.30;51.92;95205.34;4898116;29;20200;-83
2022/10/26 09:22:11;;;;;;;3.33;2.90;;;;;;;25.59;51.84;95261.47;4898574;29;20212;-83
2022/10/26 09:24:42;;;;;;;3.15;2.78;;;;;;;25.53;52.34;95270.22;4898337;29;20204;-84
2022/10/26 09:27:19;;;;;;;3.08;2.72;;;;;;;25.27;52.10;95235.41;4898282;29;20196;-83
2022/10/26 09:29:47;;;;;;;5.38;2.67;;;;;;;25.40;52.40;95267.72;4897892;29;20192;-83
2022/10/26 09:32:18;;;;;;;5.78;3.17;;;;;;;25.03;52.48;95217.88;4897766;29;20200;-82
2022/10/26 09:34:49;;;;;;;7.32;3.20;;;;;;;25.27;52.88;95256.34;4898034;29;20244;-84
2022/10/26 09:37:20;;;;;;;5.10;2.78;;;;;;;25.23;52.70;95252.56;4898148;29;20213;-83
2022/10/26 09:39:56;;;;;;;3.05;2.80;;;;;;;25.02;52.74;95230.16;4898372;29;20207;-82
2022/10/26 09:42:28;;;;;;;7.43;3.40;;;;;;;25.15;53.09;95258.06;4898063;29;20203;-83
2022/10/26 09:45:00;;;;;;;5.47;2.83;;;;;;;25.11;53.26;95251.66;4898439;29;20196;-83
2022/10/26 09:47:35;;;;;;;3.35;3.05;;;;;;;25.09;53.40;95251.09;4897954;29;20553;-82
2022/10/26 09:50:21;;;;;;;3.25;2.70;;;;;;;25.08;53.01;95248.63;4898970;29;20597;-82
2022/10/26 09:52:47;;;;;;;8.25;3.10;;;;;;;25.08;52.87;95251.25;4916222;29;20200;-81
2022/10/26 09:55:15;;;;;;;3.83;2.50;;;;;;;25.07;52.93;95250.44;4908388;29;20228;-84
2022/10/26 09:57:46;;;;;;;3.75;2.60;;;;;;;24.93;52.87;95226.22;4900590;29;20200;-82
2022/10/26 10:00:15;;;;;;;5.07;2.55;;;;;;;25.05;52.69;95243.84;4898874;29;20227;-83
2022/10/26 10:02:43;;;;;;;4.07;2.85;;;;;;;25.03;52.48;95241.41;4898708;29;20665;-82
2022/10/26 10:05:25;;;;;;;6.88;3.00;;;;;;;24.99;52.63;95227.97;4898046;29;20212;-83
2022/10/26 10:07:52;;;;;;;2.85;2.40;;;;;;;24.98;52.73;95222.94;4897542;29;20192;-83
2022/10/26 10:10:21;;;;;;;4.88;2.90;;;;;;;24.99;53.17;95227.16;4897129;29;20240;-83
2022/10/26 10:12:53;;;;;;;4.00;2.22;;;;;;;24.96;52.79;95222.38;4897215;29;20196;-83
2022/10/26 10:15:22;;;;;;;4.60;2.67;;;;;;;25.00;53.19;95223.53;4897239;29;20232;-84
2022/10/26 10:17:52;;;;;;;5.60;2.83;;;;;;;24.95;53.20;95213.69;4896419;29;20215;-83
2022/10/26 10:20:21;;;;;;;5.78;2.50;;;;;;;25.00;52.67;95221.72;4896723;29;20200;-82
2022/10/26 10:22:56;;;;;;;4.80;2.78;;;;;;;25.01;53.05;95223.31;4896869;29;20219;-82
2022/10/26 10:25:31;;;;;;;3.55;2.67;;;;;;;24.91;52.92;95204.66;4896947;29;20203;-82
2022/10/26 10:28:00;;;;;;;6.90;2.60;;;;;;;25.00;52.66;95220.94;4897016;29;20192;-82
2022/10/26 10:30:29;;;;;;;3.47;2.70;;;;;;;24.99;52.78;95219.31;4896560;29;20295;-84
2022/10/26 10:33:08;;;;;;;5.82;2.97;;;;;;;24.72;53.13;95169.81;4896538;29;20208;-84
2022/10/26 10:35:35;;;;;;;3.50;2.60;;;;;;;24.84;53.09;95190.84;4896513;29;20715;-84
2022/10/26 10:38:02;;;;;;;3.53;2.60;;;;;;;24.98;53.17;95213.28;4896915;29;20201;-82
2022/10/26 10:40:31;;;;;;;4.68;2.88;;;;;;;24.97;52.87;95206.44;4896692;29;20216;-84
2022/10/26 10:43:14;;;;;;;2.83;2.63;;;;;;;24.97;52.65;95208.28;4897026;29;20192;-83
2022/10/26 10:45:41;;;;;;;3.28;2.55;;;;;;;24.87;52.91;95189.63;4896331;29;20220;-83
2022/10/26 10:48:16;;;;;;;2.90;2.60;;;;;;;24.92;52.87;95195.03;4896515;29;20196;-83
2022/10/26 10:50:53;;;;;;;4.53;2.75;;;;;;;24.95;52.72;95203.22;4896457;29;20199;-83
2022/10/26 10:53:23;;;;;;;3.80;2.65;;;;;;;24.60;52.52;95149.78;4896351;29;20200;-82
2022/10/26 10:56:07;;;;;;;7.60;3.03;;;;;;;24.95;52.26;95194.59;4895951;29;20221;-83
2022/10/26 10:58:44;;;;;;;3.47;2.78;;;;;;;24.90;52.46;95191.81;4896357;29;20207;-83
2022/10/26 11:01:18;;;;;;;2.70;2.50;;;;;;;24.86;52.63;95180.97;4895391;29;20587;-82
2022/10/26 11:04:08;;;;;;;4.63;2.15;;;;;;;24.89;52.74;95177.13;4896126;29;20632;-83
2022/10/26 11:06:38;;;;;;;3.30;2.40;;;;;;;24.71;52.72;95154.34;4896556;29;20193;-82
2022/10/26 11:09:09;;;;;;;3.13;2.40;;;;;;;24.92;52.91;95180.13;4897099;29;20197;-82
2022/10/26 11:11:41;;;;;;;4.18;2.53;;;;;;;24.91;52.95;95180.31;4904591;29;20323;-83
2022/10/26 11:14:16;;;;;;;4.22;2.63;;;;;;;24.91;53.06;95175.88;4900700;29;20208;-83
2022/10/26 11:16:46;;;;;;;3.65;2.63;;;;;;;24.91;52.70;95188.16;4896751;29;20199;-82
2022/10/26 11:19:20;;;;;;;3.97;2.50;;;;;;;24.91;52.72;95170.66;4896226;29;20188;-83
2022/10/26 11:21:51;;;;;;;3.63;2.42;;;;;;;24.92;53.27;95182.75;4896175;29;20207;-83
2022/10/26 11:24:25;;;;;;;3.28;2.47;;;;;;;24.92;52.96;95181.94;4905551;29;20200;-83
2022/10/26 11:26:58;;;;;;;3.25;2.45;;;;;;;24.72;52.91;95153.31;4903659;29;20203;-81
2022/10/26 11:29:43;;;;;;;2.60;2.40;;;;;;;24.89;52.70;95177.13;4911758;29;20176;-82
2022/10/26 11:32:16;;;;;;;2.55;2.28;;;;;;;24.93;52.40;95179.09;4912835;29;20599;-84
2022/10/26 11:34:50;;;;;;;3.28;2.13;;;;;;;24.70;52.43;95139.69;4907436;29;20352;-82
2022/10/26 11:37:24;;;;;;;3.10;2.40;;;;;;;24.91;52.00;95169.84;4896339;29;20577;-83
2022/10/26 11:40:03;;;;;;;2.45;2.25;;;;;;;24.62;52.59;95126.88;4895957;29;20192;-84
2022/10/26 11:42:36;;;;;;;2.05;1.90;;;;;;;24.81;52.19;95159.09;4895850;29;20231;-82
2022/10/26 11:45:12;;;;;;;4.35;2.22;;;;;;;24.80;52.13;95153.06;4895581;29;20204;-83
2022/10/26 11:47:46;;;;;;;2.50;2.30;;;;;;;24.70;52.32;95134.44;4895388;29;20206;-85